sensor_id;sensor_type;location;lat;lon;timestamp;P1;durP1;ratioP1;P2;durP2;ratioP2
27666;SDS011;15074;50.940;5.282;2023-07-13T00:00:24;4.40;;;1.03;;
27666;SDS011;15074;50.940;5.282;2023-07-13T00:02:51;6.63;;;0.90;;
27666;SDS011;15074;50.940;5.282;2023-07-13T00:05:20;3.83;;;1.55;;
27666;SDS011;15074;50.940;5.282;2023-07-13T00:07:47;2.53;;;1.00;;
27666;SDS011;15074;50.940;5.282;2023-07-13T00:10:13;3.20;;;1.05;;
27666;SDS011;15074;50.940;5.282;2023-07-13T00:12:39;2.13;;;1.00;;
27666;SDS011;15074;50.940;5.282;2023-07-13T00:15:06;5.03;;;1.30;;
27666;SDS011;15074;50.940;5.282;2023-07-13T00:17:37;3.03;;;1.30;;
27666;SDS011;15074;50.940;5.282;2023-07-13T00:20:04;2.95;;;1.20;;
27666;SDS011;15074;50.940;5.282;2023-07-13T00:22:31;3.25;;;1.30;;
27666;SDS011;15074;50.940;5.282;2023-07-13T00:24:57;2.38;;;0.95;;
27666;SDS011;15074;50.940;5.282;2023-07-13T00:27:23;4.22;;;1.05;;
27666;SDS011;15074;50.940;5.282;2023-07-13T00:29:51;6.80;;;1.35;;
27666;SDS011;15074;50.940;5.282;2023-07-13T00:32:17;3.67;;;1.13;;
27666;SDS011;15074;50.940;5.282;2023-07-13T00:34:43;3.20;;;1.00;;
27666;SDS011;15074;50.940;5.282;2023-07-13T00:37:09;3.65;;;1.13;;
27666;SDS011;15074;50.940;5.282;2023-07-13T00:39:34;2.90;;;1.50;;
27666;SDS011;15074;50.940;5.282;2023-07-13T00:42:01;3.78;;;1.40;;
27666;SDS011;15074;50.940;5.282;2023-07-13T00:44:27;2.75;;;1.02;;
27666;SDS011;15074;50.940;5.282;2023-07-13T00:46:53;3.72;;;1.30;;
27666;SDS011;15074;50.940;5.282;2023-07-13T00:49:22;3.80;;;1.53;;
27666;SDS011;15074;50.940;5.282;2023-07-13T00:51:50;2.25;;;1.10;;
27666;SDS011;15074;50.940;5.282;2023-07-13T00:54:21;3.28;;;1.58;;
27666;SDS011;15074;50.940;5.282;2023-07-13T00:56:59;3.03;;;1.10;;
27666;SDS011;15074;50.940;5.282;2023-07-13T00:59:28;4.05;;;1.20;;
27666;SDS011;15074;50.940;5.282;2023-07-13T01:01:54;1.92;;;1.25;;
27666;SDS011;15074;50.940;5.282;2023-07-13T01:04:20;4.75;;;1.30;;
27666;SDS011;15074;50.940;5.282;2023-07-13T01:06:45;3.53;;;1.38;;
27666;SDS011;15074;50.940;5.282;2023-07-13T01:09:12;6.53;;;1.90;;
27666;SDS011;15074;50.940;5.282;2023-07-13T01:11:39;2.90;;;1.40;;
27666;SDS011;15074;50.940;5.282;2023-07-13T01:14:06;5.80;;;1.63;;
27666;SDS011;15074;50.940;5.282;2023-07-13T01:16:32;3.63;;;1.33;;
27666;SDS011;15074;50.940;5.282;2023-07-13T01:19:00;5.78;;;1.75;;
27666;SDS011;15074;50.940;5.282;2023-07-13T01:21:29;4.10;;;1.65;;
27666;SDS011;15074;50.940;5.282;2023-07-13T01:23:57;4.05;;;1.50;;
27666;SDS011;15074;50.940;5.282;2023-07-13T01:26:23;3.67;;;1.42;;
27666;SDS011;15074;50.940;5.282;2023-07-13T01:28:49;10.77;;;1.90;;
27666;SDS011;15074;50.940;5.282;2023-07-13T01:31:14;3.42;;;1.30;;
27666;SDS011;15074;50.940;5.282;2023-07-13T01:33:41;4.10;;;1.30;;
27666;SDS011;15074;50.940;5.282;2023-07-13T01:36:07;5.97;;;1.75;;
27666;SDS011;15074;50.940;5.282;2023-07-13T01:38:34;4.47;;;1.52;;
27666;SDS011;15074;50.940;5.282;2023-07-13T01:41:00;3.92;;;1.73;;
27666;SDS011;15074;50.940;5.282;2023-07-13T01:43:27;3.05;;;1.35;;
27666;SDS011;15074;50.940;5.282;2023-07-13T01:45:52;3.92;;;1.45;;
27666;SDS011;15074;50.940;5.282;2023-07-13T01:48:18;4.88;;;1.30;;
27666;SDS011;15074;50.940;5.282;2023-07-13T01:50:45;4.30;;;1.40;;
27666;SDS011;15074;50.940;5.282;2023-07-13T01:53:12;11.50;;;1.50;;
27666;SDS011;15074;50.940;5.282;2023-07-13T01:55:37;2.50;;;1.27;;
27666;SDS011;15074;50.940;5.282;2023-07-13T01:58:03;4.35;;;1.35;;
27666;SDS011;15074;50.940;5.282;2023-07-13T02:00:29;6.13;;;2.10;;
27666;SDS011;15074;50.940;5.282;2023-07-13T02:02:55;3.85;;;1.40;;
27666;SDS011;15074;50.940;5.282;2023-07-13T02:05:21;4.90;;;1.73;;
27666;SDS011;15074;50.940;5.282;2023-07-13T02:07:47;4.18;;;1.60;;
27666;SDS011;15074;50.940;5.282;2023-07-13T02:10:14;5.72;;;1.50;;
27666;SDS011;15074;50.940;5.282;2023-07-13T02:12:40;9.57;;;1.90;;
27666;SDS011;15074;50.940;5.282;2023-07-13T02:15:06;3.22;;;1.45;;
27666;SDS011;15074;50.940;5.282;2023-07-13T02:17:33;13.73;;;1.90;;
27666;SDS011;15074;50.940;5.282;2023-07-13T02:20:00;3.80;;;1.67;;
27666;SDS011;15074;50.940;5.282;2023-07-13T02:22:26;2.83;;;1.58;;
27666;SDS011;15074;50.940;5.282;2023-07-13T02:24:51;5.03;;;1.40;;
27666;SDS011;15074;50.940;5.282;2023-07-13T02:27:17;4.57;;;1.77;;
27666;SDS011;15074;50.940;5.282;2023-07-13T02:29:43;8.38;;;1.63;;
27666;SDS011;15074;50.940;5.282;2023-07-13T02:32:09;5.28;;;1.73;;
27666;SDS011;15074;50.940;5.282;2023-07-13T02:34:35;5.57;;;1.70;;
27666;SDS011;15074;50.940;5.282;2023-07-13T02:37:00;5.10;;;2.13;;
27666;SDS011;15074;50.940;5.282;2023-07-13T02:39:26;4.43;;;1.40;;
27666;SDS011;15074;50.940;5.282;2023-07-13T02:41:52;5.15;;;1.88;;
27666;SDS011;15074;50.940;5.282;2023-07-13T02:44:17;4.40;;;1.98;;
27666;SDS011;15074;50.940;5.282;2023-07-13T02:46:43;4.45;;;1.40;;
27666;SDS011;15074;50.940;5.282;2023-07-13T02:49:09;7.20;;;2.10;;
27666;SDS011;15074;50.940;5.282;2023-07-13T02:51:35;4.95;;;1.75;;
27666;SDS011;15074;50.940;5.282;2023-07-13T02:54:01;13.35;;;2.03;;
27666;SDS011;15074;50.940;5.282;2023-07-13T02:56:28;5.07;;;1.80;;
27666;SDS011;15074;50.940;5.282;2023-07-13T02:58:55;6.97;;;2.00;;
27666;SDS011;15074;50.940;5.282;2023-07-13T03:01:21;4.45;;;1.65;;
27666;SDS011;15074;50.940;5.282;2023-07-13T03:03:49;6.60;;;1.90;;
27666;SDS011;15074;50.940;5.282;2023-07-13T03:06:15;7.50;;;2.80;;
27666;SDS011;15074;50.940;5.282;2023-07-13T03:08:41;4.40;;;2.00;;
27666;SDS011;15074;50.940;5.282;2023-07-13T03:11:12;4.32;;;1.60;;
27666;SDS011;15074;50.940;5.282;2023-07-13T03:13:40;4.93;;;2.05;;
27666;SDS011;15074;50.940;5.282;2023-07-13T03:16:08;8.38;;;2.15;;
27666;SDS011;15074;50.940;5.282;2023-07-13T03:18:34;6.77;;;2.23;;
27666;SDS011;15074;50.940;5.282;2023-07-13T03:21:01;5.53;;;2.53;;
27666;SDS011;15074;50.940;5.282;2023-07-13T03:23:26;5.25;;;1.80;;
27666;SDS011;15074;50.940;5.282;2023-07-13T03:26:05;8.80;;;2.08;;
27666;SDS011;15074;50.940;5.282;2023-07-13T03:28:33;5.68;;;1.75;;
27666;SDS011;15074;50.940;5.282;2023-07-13T03:31:01;8.25;;;1.98;;
27666;SDS011;15074;50.940;5.282;2023-07-13T03:33:32;3.20;;;1.90;;
27666;SDS011;15074;50.940;5.282;2023-07-13T03:35:58;3.60;;;2.38;;
27666;SDS011;15074;50.940;5.282;2023-07-13T03:38:24;4.93;;;1.95;;
27666;SDS011;15074;50.940;5.282;2023-07-13T03:40:50;15.27;;;2.38;;
27666;SDS011;15074;50.940;5.282;2023-07-13T03:43:15;6.35;;;2.42;;
27666;SDS011;15074;50.940;5.282;2023-07-13T03:45:41;4.75;;;1.92;;
27666;SDS011;15074;50.940;5.282;2023-07-13T03:48:06;7.35;;;1.73;;
27666;SDS011;15074;50.940;5.282;2023-07-13T03:50:32;10.65;;;2.55;;
27666;SDS011;15074;50.940;5.282;2023-07-13T03:52:58;5.10;;;2.03;;
27666;SDS011;15074;50.940;5.282;2023-07-13T03:55:24;5.88;;;2.22;;
27666;SDS011;15074;50.940;5.282;2023-07-13T03:57:57;6.93;;;1.88;;
27666;SDS011;15074;50.940;5.282;2023-07-13T04:00:43;6.47;;;2.05;;
27666;SDS011;15074;50.940;5.282;2023-07-13T04:03:09;4.18;;;1.83;;
27666;SDS011;15074;50.940;5.282;2023-07-13T04:05:34;5.90;;;1.98;;
27666;SDS011;15074;50.940;5.282;2023-07-13T04:08:01;5.88;;;1.80;;
27666;SDS011;15074;50.940;5.282;2023-07-13T04:10:26;5.80;;;2.17;;
27666;SDS011;15074;50.940;5.282;2023-07-13T04:12:52;6.60;;;2.15;;
27666;SDS011;15074;50.940;5.282;2023-07-13T04:15:18;7.15;;;2.10;;
27666;SDS011;15074;50.940;5.282;2023-07-13T04:17:43;9.65;;;2.03;;
27666;SDS011;15074;50.940;5.282;2023-07-13T04:20:09;7.75;;;2.67;;
27666;SDS011;15074;50.940;5.282;2023-07-13T04:22:35;7.88;;;2.03;;
27666;SDS011;15074;50.940;5.282;2023-07-13T04:25:00;6.32;;;2.08;;
27666;SDS011;15074;50.940;5.282;2023-07-13T04:27:26;5.45;;;2.28;;
27666;SDS011;15074;50.940;5.282;2023-07-13T04:29:53;5.83;;;1.90;;
27666;SDS011;15074;50.940;5.282;2023-07-13T04:32:19;5.53;;;1.80;;
27666;SDS011;15074;50.940;5.282;2023-07-13T04:34:44;6.13;;;2.08;;
27666;SDS011;15074;50.940;5.282;2023-07-13T04:37:10;4.93;;;2.10;;
27666;SDS011;15074;50.940;5.282;2023-07-13T04:39:36;4.85;;;1.90;;
27666;SDS011;15074;50.940;5.282;2023-07-13T04:42:02;4.53;;;1.95;;
27666;SDS011;15074;50.940;5.282;2023-07-13T04:44:28;8.63;;;2.63;;
27666;SDS011;15074;50.940;5.282;2023-07-13T04:46:54;6.95;;;2.13;;
27666;SDS011;15074;50.940;5.282;2023-07-13T04:49:20;4.43;;;2.13;;
27666;SDS011;15074;50.940;5.282;2023-07-13T04:51:45;5.13;;;2.40;;
27666;SDS011;15074;50.940;5.282;2023-07-13T04:54:11;4.68;;;2.08;;
27666;SDS011;15074;50.940;5.282;2023-07-13T04:56:36;6.00;;;2.33;;
27666;SDS011;15074;50.940;5.282;2023-07-13T04:59:02;8.25;;;2.72;;
27666;SDS011;15074;50.940;5.282;2023-07-13T05:01:28;7.57;;;2.70;;
27666;SDS011;15074;50.940;5.282;2023-07-13T05:03:53;8.80;;;2.25;;
27666;SDS011;15074;50.940;5.282;2023-07-13T05:06:22;6.70;;;2.47;;
27666;SDS011;15074;50.940;5.282;2023-07-13T05:08:48;7.03;;;2.38;;
27666;SDS011;15074;50.940;5.282;2023-07-13T05:11:13;5.15;;;2.75;;
27666;SDS011;15074;50.940;5.282;2023-07-13T05:13:39;7.50;;;2.38;;
27666;SDS011;15074;50.940;5.282;2023-07-13T05:16:05;10.60;;;2.55;;
27666;SDS011;15074;50.940;5.282;2023-07-13T05:18:32;4.80;;;2.00;;
27666;SDS011;15074;50.940;5.282;2023-07-13T05:21:02;8.07;;;2.35;;
27666;SDS011;15074;50.940;5.282;2023-07-13T05:23:31;5.32;;;1.70;;
27666;SDS011;15074;50.940;5.282;2023-07-13T05:25:58;6.77;;;1.90;;
27666;SDS011;15074;50.940;5.282;2023-07-13T05:28:24;5.25;;;2.10;;
27666;SDS011;15074;50.940;5.282;2023-07-13T05:30:51;6.80;;;1.80;;
27666;SDS011;15074;50.940;5.282;2023-07-13T05:33:17;13.60;;;2.42;;
27666;SDS011;15074;50.940;5.282;2023-07-13T05:35:42;6.60;;;2.13;;
27666;SDS011;15074;50.940;5.282;2023-07-13T05:38:08;6.88;;;1.88;;
27666;SDS011;15074;50.940;5.282;2023-07-13T05:40:33;3.75;;;2.25;;
27666;SDS011;15074;50.940;5.282;2023-07-13T05:42:59;4.65;;;2.33;;
27666;SDS011;15074;50.940;5.282;2023-07-13T05:45:25;3.88;;;2.00;;
27666;SDS011;15074;50.940;5.282;2023-07-13T05:47:51;6.85;;;2.20;;
27666;SDS011;15074;50.940;5.282;2023-07-13T05:50:16;12.30;;;2.53;;
27666;SDS011;15074;50.940;5.282;2023-07-13T05:52:42;11.93;;;2.15;;
27666;SDS011;15074;50.940;5.282;2023-07-13T05:55:08;6.60;;;2.33;;
27666;SDS011;15074;50.940;5.282;2023-07-13T05:57:34;8.80;;;2.53;;
27666;SDS011;15074;50.940;5.282;2023-07-13T05:59:59;8.18;;;3.03;;
27666;SDS011;15074;50.940;5.282;2023-07-13T06:02:25;6.43;;;2.42;;
27666;SDS011;15074;50.940;5.282;2023-07-13T06:04:51;5.65;;;2.13;;
27666;SDS011;15074;50.940;5.282;2023-07-13T06:07:17;4.10;;;1.98;;
27666;SDS011;15074;50.940;5.282;2023-07-13T06:09:42;7.53;;;1.98;;
27666;SDS011;15074;50.940;5.282;2023-07-13T06:12:08;8.32;;;1.95;;
27666;SDS011;15074;50.940;5.282;2023-07-13T06:14:35;8.25;;;2.30;;
27666;SDS011;15074;50.940;5.282;2023-07-13T06:17:01;5.15;;;2.22;;
27666;SDS011;15074;50.940;5.282;2023-07-13T06:19:26;6.18;;;2.65;;
27666;SDS011;15074;50.940;5.282;2023-07-13T06:21:52;6.85;;;2.63;;
27666;SDS011;15074;50.940;5.282;2023-07-13T06:24:18;6.78;;;2.50;;
27666;SDS011;15074;50.940;5.282;2023-07-13T06:26:43;5.38;;;2.70;;
27666;SDS011;15074;50.940;5.282;2023-07-13T06:29:09;6.30;;;2.53;;
27666;SDS011;15074;50.940;5.282;2023-07-13T06:31:35;8.95;;;2.10;;
27666;SDS011;15074;50.940;5.282;2023-07-13T06:34:00;6.03;;;2.25;;
27666;SDS011;15074;50.940;5.282;2023-07-13T06:36:26;5.30;;;2.88;;
27666;SDS011;15074;50.940;5.282;2023-07-13T06:38:52;4.80;;;2.33;;
27666;SDS011;15074;50.940;5.282;2023-07-13T06:41:17;5.15;;;2.20;;
27666;SDS011;15074;50.940;5.282;2023-07-13T06:43:43;7.15;;;2.55;;
27666;SDS011;15074;50.940;5.282;2023-07-13T06:46:09;11.60;;;2.65;;
27666;SDS011;15074;50.940;5.282;2023-07-13T06:48:35;8.88;;;2.83;;
27666;SDS011;15074;50.940;5.282;2023-07-13T06:51:01;5.45;;;2.45;;
27666;SDS011;15074;50.940;5.282;2023-07-13T06:53:27;6.18;;;2.47;;
27666;SDS011;15074;50.940;5.282;2023-07-13T06:55:53;8.88;;;2.60;;
27666;SDS011;15074;50.940;5.282;2023-07-13T06:58:18;11.93;;;2.45;;
27666;SDS011;15074;50.940;5.282;2023-07-13T07:00:45;7.65;;;1.95;;
27666;SDS011;15074;50.940;5.282;2023-07-13T07:03:11;9.45;;;2.42;;
27666;SDS011;15074;50.940;5.282;2023-07-13T07:05:37;6.75;;;2.28;;
27666;SDS011;15074;50.940;5.282;2023-07-13T07:08:03;8.05;;;2.63;;
27666;SDS011;15074;50.940;5.282;2023-07-13T07:10:29;7.03;;;3.25;;
27666;SDS011;15074;50.940;5.282;2023-07-13T07:12:55;6.72;;;2.92;;
27666;SDS011;15074;50.940;5.282;2023-07-13T07:15:21;6.57;;;2.08;;
27666;SDS011;15074;50.940;5.282;2023-07-13T07:17:47;5.25;;;2.13;;
27666;SDS011;15074;50.940;5.282;2023-07-13T07:20:12;8.93;;;2.90;;
27666;SDS011;15074;50.940;5.282;2023-07-13T07:22:38;7.38;;;2.25;;
27666;SDS011;15074;50.940;5.282;2023-07-13T07:25:04;5.88;;;2.58;;
27666;SDS011;15074;50.940;5.282;2023-07-13T07:27:30;6.28;;;2.45;;
27666;SDS011;15074;50.940;5.282;2023-07-13T07:29:56;5.88;;;2.13;;
27666;SDS011;15074;50.940;5.282;2023-07-13T07:32:22;10.80;;;3.08;;
27666;SDS011;15074;50.940;5.282;2023-07-13T07:34:48;6.22;;;2.28;;
27666;SDS011;15074;50.940;5.282;2023-07-13T07:37:14;7.78;;;2.42;;
27666;SDS011;15074;50.940;5.282;2023-07-13T07:39:40;6.22;;;2.08;;
27666;SDS011;15074;50.940;5.282;2023-07-13T07:42:06;5.13;;;2.33;;
27666;SDS011;15074;50.940;5.282;2023-07-13T07:44:32;4.57;;;2.13;;
27666;SDS011;15074;50.940;5.282;2023-07-13T07:46:58;6.28;;;2.35;;
27666;SDS011;15074;50.940;5.282;2023-07-13T07:49:24;6.38;;;2.40;;
27666;SDS011;15074;50.940;5.282;2023-07-13T07:51:49;5.88;;;2.50;;
27666;SDS011;15074;50.940;5.282;2023-07-13T07:54:15;7.25;;;2.20;;
27666;SDS011;15074;50.940;5.282;2023-07-13T07:56:42;3.53;;;2.05;;
27666;SDS011;15074;50.940;5.282;2023-07-13T07:59:08;8.27;;;2.47;;
27666;SDS011;15074;50.940;5.282;2023-07-13T08:01:35;5.65;;;2.22;;
27666;SDS011;15074;50.940;5.282;2023-07-13T08:04:01;8.93;;;2.85;;
27666;SDS011;15074;50.940;5.282;2023-07-13T08:06:26;4.88;;;2.45;;
27666;SDS011;15074;50.940;5.282;2023-07-13T08:08:52;3.85;;;1.88;;
27666;SDS011;15074;50.940;5.282;2023-07-13T08:11:18;4.93;;;1.98;;
27666;SDS011;15074;50.940;5.282;2023-07-13T08:13:45;5.03;;;2.10;;
27666;SDS011;15074;50.940;5.282;2023-07-13T08:16:11;6.07;;;2.67;;
27666;SDS011;15074;50.940;5.282;2023-07-13T08:18:36;4.85;;;2.40;;
27666;SDS011;15074;50.940;5.282;2023-07-13T08:21:03;5.10;;;1.92;;
27666;SDS011;15074;50.940;5.282;2023-07-13T08:23:30;6.00;;;1.95;;
27666;SDS011;15074;50.940;5.282;2023-07-13T08:25:55;5.15;;;2.00;;
27666;SDS011;15074;50.940;5.282;2023-07-13T08:28:22;8.70;;;2.47;;
27666;SDS011;15074;50.940;5.282;2023-07-13T08:30:48;8.38;;;2.63;;
27666;SDS011;15074;50.940;5.282;2023-07-13T08:33:17;6.43;;;2.40;;
27666;SDS011;15074;50.940;5.282;2023-07-13T08:35:47;5.05;;;2.13;;
27666;SDS011;15074;50.940;5.282;2023-07-13T08:38:13;5.40;;;1.92;;
27666;SDS011;15074;50.940;5.282;2023-07-13T08:40:39;5.75;;;2.35;;
27666;SDS011;15074;50.940;5.282;2023-07-13T08:43:07;6.18;;;2.63;;
27666;SDS011;15074;50.940;5.282;2023-07-13T08:45:52;5.82;;;2.08;;
27666;SDS011;15074;50.940;5.282;2023-07-13T08:48:50;5.82;;;2.13;;
27666;SDS011;15074;50.940;5.282;2023-07-13T08:54:16;5.10;;;2.10;;
27666;SDS011;15074;50.940;5.282;2023-07-13T08:56:53;7.70;;;2.10;;
27666;SDS011;15074;50.940;5.282;2023-07-13T08:59:25;3.83;;;1.73;;
27666;SDS011;15074;50.940;5.282;2023-07-13T09:04:49;4.60;;;1.70;;
27666;SDS011;15074;50.940;5.282;2023-07-13T09:12:49;4.68;;;1.67;;
27666;SDS011;15074;50.940;5.282;2023-07-13T09:15:39;4.85;;;1.60;;
27666;SDS011;15074;50.940;5.282;2023-07-13T09:18:13;6.00;;;1.80;;
27666;SDS011;15074;50.940;5.282;2023-07-13T09:23:10;3.20;;;1.45;;
27666;SDS011;15074;50.940;5.282;2023-07-13T09:25:40;4.22;;;1.40;;
27666;SDS011;15074;50.940;5.282;2023-07-13T09:28:16;5.05;;;1.40;;
27666;SDS011;15074;50.940;5.282;2023-07-13T09:33:25;7.07;;;1.85;;
27666;SDS011;15074;50.940;5.282;2023-07-13T09:35:54;3.13;;;1.42;;
27666;SDS011;15074;50.940;5.282;2023-07-13T09:38:22;3.22;;;1.20;;
27666;SDS011;15074;50.940;5.282;2023-07-13T09:43:36;4.05;;;1.50;;
27666;SDS011;15074;50.940;5.282;2023-07-13T09:46:01;4.10;;;1.35;;
27666;SDS011;15074;50.940;5.282;2023-07-13T09:51:01;4.57;;;1.20;;
27666;SDS011;15074;50.940;5.282;2023-07-13T09:53:37;4.28;;;1.40;;
27666;SDS011;15074;50.940;5.282;2023-07-13T09:56:03;4.03;;;1.20;;
27666;SDS011;15074;50.940;5.282;2023-07-13T09:58:29;3.08;;;1.20;;
27666;SDS011;15074;50.940;5.282;2023-07-13T10:01:01;3.78;;;1.20;;
27666;SDS011;15074;50.940;5.282;2023-07-13T10:03:31;2.65;;;1.02;;
27666;SDS011;15074;50.940;5.282;2023-07-13T10:06:12;2.83;;;1.25;;
27666;SDS011;15074;50.940;5.282;2023-07-13T10:11:18;1.83;;;1.02;;
27666;SDS011;15074;50.940;5.282;2023-07-13T10:16:16;2.92;;;1.05;;
27666;SDS011;15074;50.940;5.282;2023-07-13T10:18:45;4.40;;;0.90;;
27666;SDS011;15074;50.940;5.282;2023-07-13T10:21:15;4.57;;;1.27;;
27666;SDS011;15074;50.940;5.282;2023-07-13T10:23:43;3.17;;;1.00;;
27666;SDS011;15074;50.940;5.282;2023-07-13T10:26:16;3.05;;;1.30;;
27666;SDS011;15074;50.940;5.282;2023-07-13T10:28:46;4.45;;;1.23;;
27666;SDS011;15074;50.940;5.282;2023-07-13T10:31:16;2.35;;;0.90;;
27666;SDS011;15074;50.940;5.282;2023-07-13T10:33:43;2.03;;;1.30;;
27666;SDS011;15074;50.940;5.282;2023-07-13T10:36:13;2.35;;;0.90;;
27666;SDS011;15074;50.940;5.282;2023-07-13T10:39:00;3.05;;;0.88;;
27666;SDS011;15074;50.940;5.282;2023-07-13T10:41:30;4.32;;;0.90;;
27666;SDS011;15074;50.940;5.282;2023-07-13T10:43:58;3.13;;;1.00;;
27666;SDS011;15074;50.940;5.282;2023-07-13T10:46:26;2.80;;;1.20;;
27666;SDS011;15074;50.940;5.282;2023-07-13T10:48:54;3.63;;;1.00;;
27666;SDS011;15074;50.940;5.282;2023-07-13T10:51:23;2.85;;;1.20;;
27666;SDS011;15074;50.940;5.282;2023-07-13T10:54:11;2.53;;;1.38;;
27666;SDS011;15074;50.940;5.282;2023-07-13T10:56:53;3.42;;;0.93;;
27666;SDS011;15074;50.940;5.282;2023-07-13T10:59:31;2.17;;;1.08;;
27666;SDS011;15074;50.940;5.282;2023-07-13T11:04:42;1.98;;;1.10;;
27666;SDS011;15074;50.940;5.282;2023-07-13T11:09:52;3.88;;;1.17;;
27666;SDS011;15074;50.940;5.282;2023-07-13T11:17:37;3.03;;;0.80;;
27666;SDS011;15074;50.940;5.282;2023-07-13T11:25:42;2.92;;;0.88;;
27666;SDS011;15074;50.940;5.282;2023-07-13T11:30:46;2.40;;;0.82;;
27666;SDS011;15074;50.940;5.282;2023-07-13T11:33:20;2.03;;;0.73;;
27666;SDS011;15074;50.940;5.282;2023-07-13T11:36:13;2.90;;;0.95;;
27666;SDS011;15074;50.940;5.282;2023-07-13T11:41:21;4.50;;;0.88;;
27666;SDS011;15074;50.940;5.282;2023-07-13T11:43:54;6.63;;;0.85;;
27666;SDS011;15074;50.940;5.282;2023-07-13T11:46:28;2.83;;;0.80;;
27666;SDS011;15074;50.940;5.282;2023-07-13T11:48:54;5.30;;;1.20;;
27666;SDS011;15074;50.940;5.282;2023-07-13T11:51:33;2.75;;;0.90;;
27666;SDS011;15074;50.940;5.282;2023-07-13T11:54:05;1.58;;;0.80;;
27666;SDS011;15074;50.940;5.282;2023-07-13T11:56:39;2.47;;;0.93;;
27666;SDS011;15074;50.940;5.282;2023-07-13T11:59:07;2.50;;;0.80;;
27666;SDS011;15074;50.940;5.282;2023-07-13T12:01:36;1.58;;;0.90;;
27666;SDS011;15074;50.940;5.282;2023-07-13T12:04:25;7.18;;;1.17;;
27666;SDS011;15074;50.940;5.282;2023-07-13T12:07:30;2.35;;;0.80;;
27666;SDS011;15074;50.940;5.282;2023-07-13T12:09:48;3.38;;;0.80;;
27666;SDS011;15074;50.940;5.282;2023-07-13T12:12:21;5.22;;;0.80;;
27666;SDS011;15074;50.940;5.282;2023-07-13T12:14:51;3.53;;;1.27;;
27666;SDS011;15074;50.940;5.282;2023-07-13T12:17:22;3.63;;;0.85;;
27666;SDS011;15074;50.940;5.282;2023-07-13T12:19:53;1.25;;;0.68;;
27666;SDS011;15074;50.940;5.282;2023-07-13T12:22:19;3.72;;;1.10;;
27666;SDS011;15074;50.940;5.282;2023-07-13T12:24:46;3.38;;;0.80;;
27666;SDS011;15074;50.940;5.282;2023-07-13T12:27:18;4.35;;;1.17;;
27666;SDS011;15074;50.940;5.282;2023-07-13T12:29:57;2.22;;;0.90;;
27666;SDS011;15074;50.940;5.282;2023-07-13T12:32:25;1.77;;;0.80;;
27666;SDS011;15074;50.940;5.282;2023-07-13T12:34:53;2.35;;;0.90;;
27666;SDS011;15074;50.940;5.282;2023-07-13T12:37:21;1.50;;;0.63;;
27666;SDS011;15074;50.940;5.282;2023-07-13T12:39:47;2.70;;;0.85;;
27666;SDS011;15074;50.940;5.282;2023-07-13T12:42:27;4.20;;;1.10;;
27666;SDS011;15074;50.940;5.282;2023-07-13T12:47:31;3.08;;;0.80;;
27666;SDS011;15074;50.940;5.282;2023-07-13T12:50:12;2.25;;;0.88;;
27666;SDS011;15074;50.940;5.282;2023-07-13T12:52:44;4.38;;;1.00;;
27666;SDS011;15074;50.940;5.282;2023-07-13T12:55:17;2.92;;;1.00;;
27666;SDS011;15074;50.940;5.282;2023-07-13T12:57:46;1.65;;;0.75;;
27666;SDS011;15074;50.940;5.282;2023-07-13T13:00:26;2.22;;;0.80;;
27666;SDS011;15074;50.940;5.282;2023-07-13T13:03:05;1.02;;;0.70;;
27666;SDS011;15074;50.940;5.282;2023-07-13T13:05:40;3.92;;;0.82;;
27666;SDS011;15074;50.940;5.282;2023-07-13T13:08:08;1.10;;;0.70;;
27666;SDS011;15074;50.940;5.282;2023-07-13T13:10:36;2.20;;;0.70;;
27666;SDS011;15074;50.940;5.282;2023-07-13T13:13:02;1.77;;;0.90;;
27666;SDS011;15074;50.940;5.282;2023-07-13T13:15:28;1.42;;;0.80;;
27666;SDS011;15074;50.940;5.282;2023-07-13T13:17:55;1.77;;;0.80;;
27666;SDS011;15074;50.940;5.282;2023-07-13T13:20:22;2.58;;;1.00;;
27666;SDS011;15074;50.940;5.282;2023-07-13T13:22:48;2.40;;;0.87;;
27666;SDS011;15074;50.940;5.282;2023-07-13T13:25:14;2.50;;;1.20;;
27666;SDS011;15074;50.940;5.282;2023-07-13T13:27:40;2.10;;;0.98;;
27666;SDS011;15074;50.940;5.282;2023-07-13T13:32:41;1.60;;;1.10;;
27666;SDS011;15074;50.940;5.282;2023-07-13T13:35:18;1.88;;;1.00;;
27666;SDS011;15074;50.940;5.282;2023-07-13T13:37:45;2.30;;;1.02;;
27666;SDS011;15074;50.940;5.282;2023-07-13T13:40:17;2.92;;;0.90;;
27666;SDS011;15074;50.940;5.282;2023-07-13T13:42:45;1.67;;;0.80;;
27666;SDS011;15074;50.940;5.282;2023-07-13T13:45:11;2.42;;;0.90;;
27666;SDS011;15074;50.940;5.282;2023-07-13T13:47:37;3.60;;;1.10;;
27666;SDS011;15074;50.940;5.282;2023-07-13T13:50:15;1.38;;;0.88;;
27666;SDS011;15074;50.940;5.282;2023-07-13T13:52:43;5.53;;;0.98;;
27666;SDS011;15074;50.940;5.282;2023-07-13T13:55:16;2.53;;;1.02;;
27666;SDS011;15074;50.940;5.282;2023-07-13T13:57:46;11.65;;;1.33;;
27666;SDS011;15074;50.940;5.282;2023-07-13T14:00:12;3.10;;;1.20;;
27666;SDS011;15074;50.940;5.282;2023-07-13T14:02:40;3.33;;;1.02;;
27666;SDS011;15074;50.940;5.282;2023-07-13T14:05:10;2.15;;;1.00;;
27666;SDS011;15074;50.940;5.282;2023-07-13T14:07:38;2.80;;;1.10;;
27666;SDS011;15074;50.940;5.282;2023-07-13T14:10:08;1.67;;;1.08;;
27666;SDS011;15074;50.940;5.282;2023-07-13T14:12:38;2.92;;;1.20;;
27666;SDS011;15074;50.940;5.282;2023-07-13T14:15:04;1.70;;;1.08;;
27666;SDS011;15074;50.940;5.282;2023-07-13T14:17:30;2.65;;;1.00;;
27666;SDS011;15074;50.940;5.282;2023-07-13T14:19:56;2.25;;;1.05;;
27666;SDS011;15074;50.940;5.282;2023-07-13T14:22:26;3.65;;;0.85;;
27666;SDS011;15074;50.940;5.282;2023-07-13T14:24:55;2.92;;;1.20;;
27666;SDS011;15074;50.940;5.282;2023-07-13T14:27:22;1.80;;;1.00;;
27666;SDS011;15074;50.940;5.282;2023-07-13T14:29:49;2.65;;;0.90;;
27666;SDS011;15074;50.940;5.282;2023-07-13T14:32:15;3.47;;;1.00;;
27666;SDS011;15074;50.940;5.282;2023-07-13T14:34:40;3.40;;;0.98;;
27666;SDS011;15074;50.940;5.282;2023-07-13T14:37:10;1.42;;;0.93;;
27666;SDS011;15074;50.940;5.282;2023-07-13T14:39:39;2.53;;;1.15;;
27666;SDS011;15074;50.940;5.282;2023-07-13T14:42:08;1.92;;;0.90;;
27666;SDS011;15074;50.940;5.282;2023-07-13T14:44:34;2.15;;;1.10;;
27666;SDS011;15074;50.940;5.282;2023-07-13T14:47:02;2.00;;;0.90;;
27666;SDS011;15074;50.940;5.282;2023-07-13T14:49:30;2.22;;;0.80;;
27666;SDS011;15074;50.940;5.282;2023-07-13T14:52:00;3.13;;;1.00;;
27666;SDS011;15074;50.940;5.282;2023-07-13T14:54:29;1.25;;;1.00;;
27666;SDS011;15074;50.940;5.282;2023-07-13T14:56:54;1.83;;;0.80;;
27666;SDS011;15074;50.940;5.282;2023-07-13T14:59:20;2.88;;;0.90;;
27666;SDS011;15074;50.940;5.282;2023-07-13T15:01:46;2.95;;;0.80;;
27666;SDS011;15074;50.940;5.282;2023-07-13T15:04:14;1.63;;;0.75;;
27666;SDS011;15074;50.940;5.282;2023-07-13T15:09:26;1.98;;;0.82;;
27666;SDS011;15074;50.940;5.282;2023-07-13T15:11:57;1.60;;;1.00;;
27666;SDS011;15074;50.940;5.282;2023-07-13T15:14:24;1.17;;;0.70;;
27666;SDS011;15074;50.940;5.282;2023-07-13T15:16:51;1.52;;;0.88;;
27666;SDS011;15074;50.940;5.282;2023-07-13T15:19:19;1.95;;;0.77;;
27666;SDS011;15074;50.940;5.282;2023-07-13T15:21:46;1.90;;;0.70;;
27666;SDS011;15074;50.940;5.282;2023-07-13T15:24:12;1.53;;;0.90;;
27666;SDS011;15074;50.940;5.282;2023-07-13T15:26:38;1.67;;;1.00;;
27666;SDS011;15074;50.940;5.282;2023-07-13T15:29:05;1.92;;;0.90;;
27666;SDS011;15074;50.940;5.282;2023-07-13T15:31:31;2.65;;;1.08;;
27666;SDS011;15074;50.940;5.282;2023-07-13T15:34:03;3.17;;;1.00;;
27666;SDS011;15074;50.940;5.282;2023-07-13T15:36:35;2.42;;;0.90;;
27666;SDS011;15074;50.940;5.282;2023-07-13T15:39:01;1.80;;;0.80;;
27666;SDS011;15074;50.940;5.282;2023-07-13T15:41:27;2.58;;;0.98;;
27666;SDS011;15074;50.940;5.282;2023-07-13T15:43:55;6.63;;;1.40;;
27666;SDS011;15074;50.940;5.282;2023-07-13T15:46:25;1.70;;;0.90;;
27666;SDS011;15074;50.940;5.282;2023-07-13T15:48:53;18.60;;;2.45;;